createdAt,value
2022-12-11T00:00:48.775Z,95330.81
2022-12-11T00:03:17.608Z,95334.94
2022-12-11T00:05:45.746Z,95330.03
2022-12-11T00:08:13.612Z,95342.59
2022-12-11T00:10:40.452Z,95340.50
2022-12-11T00:13:06.857Z,95340.78
2022-12-11T00:15:33.191Z,95348.56
2022-12-11T00:18:00.018Z,95350.53
2022-12-11T00:20:27.031Z,95347.28
2022-12-11T00:22:53.343Z,95345.34
2022-12-11T00:25:20.230Z,95358.69
2022-12-11T00:27:47.144Z,95350.84
2022-12-11T00:30:14.874Z,95344.75
2022-12-11T00:32:41.422Z,95337.59
2022-12-11T00:35:08.631Z,95333.41
2022-12-11T00:37:35.338Z,95328.38
2022-12-11T00:40:02.112Z,95332.44
2022-12-11T00:42:28.524Z,95336.44
2022-12-11T00:44:56.272Z,95341.19
2022-12-11T00:47:22.912Z,95333.13
2022-12-11T00:49:50.338Z,95339.25
2022-12-11T00:52:17.789Z,95334.63
2022-12-11T00:54:44.410Z,95338.06
2022-12-11T00:57:10.806Z,95334.91
2022-12-11T00:59:37.270Z,95336.00
2022-12-11T01:02:04.493Z,95343.56
2022-12-11T01:04:30.881Z,95348.25
2022-12-11T01:06:57.226Z,95341.94
2022-12-11T01:09:42.875Z,95340.31
2022-12-11T01:12:09.227Z,95352.16
2022-12-11T01:14:35.668Z,95345.09
2022-12-11T01:17:02.410Z,95352.22
2022-12-11T01:19:28.785Z,95354.00
2022-12-11T01:21:55.147Z,95350.47
2022-12-11T01:24:21.863Z,95360.06
2022-12-11T01:26:48.570Z,95365.25
2022-12-11T01:29:14.903Z,95364.44
2022-12-11T01:31:41.290Z,95363.31
2022-12-11T01:34:07.966Z,95369.03
2022-12-11T01:36:34.295Z,95370.00
2022-12-11T01:39:00.652Z,95364.13
2022-12-11T01:41:27.427Z,95371.34
2022-12-11T01:44:02.422Z,95370.16
2022-12-11T01:46:29.472Z,95371.41
2022-12-11T01:48:55.989Z,95377.75
2022-12-11T01:51:24.089Z,95373.91
2022-12-11T01:53:59.818Z,95359.53
2022-12-11T01:56:27.562Z,95364.75
2022-12-11T01:58:57.505Z,95357.69
2022-12-11T02:01:37.207Z,95356.84
2022-12-11T02:04:04.457Z,95360.06
2022-12-11T02:06:39.928Z,95365.63
2022-12-11T02:09:10.845Z,95373.91
2022-12-11T02:12:10.190Z,95379.97
2022-12-11T02:14:53.535Z,95372.06
2022-12-11T02:17:28.864Z,95369.59
2022-12-11T02:20:01.420Z,95375.31
2022-12-11T02:22:52.774Z,95377.41
2022-12-11T02:25:32.709Z,95374.47
2022-12-11T02:28:20.847Z,95366.13
2022-12-11T02:31:12.724Z,95369.09
2022-12-11T02:33:46.078Z,95371.00
2022-12-11T02:36:16.071Z,95364.38
2022-12-11T02:38:50.930Z,95364.84
2022-12-11T02:41:21.221Z,95365.91
2022-12-11T02:43:51.046Z,95373.25
2022-12-11T02:46:21.102Z,95364.03
2022-12-11T02:48:51.231Z,95371.34
2022-12-11T02:51:24.148Z,95370.22
2022-12-11T02:53:53.646Z,95371.44
2022-12-11T02:56:26.951Z,95365.97
2022-12-11T02:59:02.865Z,95374.03
2022-12-11T03:01:29.682Z,95371.94
2022-12-11T03:03:57.923Z,95378.47
2022-12-11T03:06:39.880Z,95383.88
2022-12-11T03:09:06.967Z,95376.19
2022-12-11T03:11:33.834Z,95375.88
2022-12-11T03:14:02.775Z,95377.41
2022-12-11T03:16:37.481Z,95378.41
2022-12-11T03:19:10.515Z,95370.94
2022-12-11T03:21:45.854Z,95371.56
2022-12-11T03:24:22.407Z,95369.78
2022-12-11T03:27:24.567Z,95374.69
2022-12-11T03:29:59.502Z,95365.56
2022-12-11T03:32:28.586Z,95362.34
2022-12-11T03:35:08.831Z,95368.72
2022-12-11T03:37:39.194Z,95370.97
2022-12-11T03:40:12.490Z,95380.75
2022-12-11T03:42:40.542Z,95377.47
2022-12-11T03:45:08.778Z,95381.38
2022-12-11T03:47:38.307Z,95383.75
2022-12-11T03:50:07.299Z,95389.06
2022-12-11T03:52:37.631Z,95377.47
2022-12-11T03:55:09.535Z,95383.03
2022-12-11T03:57:37.925Z,95382.69
2022-12-11T04:00:07.716Z,95380.13
2022-12-11T04:02:34.443Z,95383.44
2022-12-11T04:05:00.825Z,95376.81
2022-12-11T04:07:28.403Z,95377.09
2022-12-11T04:09:55.531Z,95370.78
2022-12-11T04:12:21.847Z,95359.38
2022-12-11T04:15:03.977Z,95364.66
2022-12-11T04:17:56.242Z,95359.50
2022-12-11T04:20:41.437Z,95363.47
2022-12-11T04:23:32.258Z,95369.56
2022-12-11T04:26:13.375Z,95369.91
2022-12-11T04:28:40.721Z,95368.19
2022-12-11T04:31:11.521Z,95369.25
2022-12-11T04:33:37.985Z,95373.19
2022-12-11T04:36:04.548Z,95374.81
2022-12-11T04:38:30.923Z,95369.19
2022-12-11T04:41:07.362Z,95373.91
2022-12-11T04:43:36.070Z,95370.13
2022-12-11T04:46:11.403Z,95363.09
2022-12-11T04:48:39.155Z,95377.94
2022-12-11T04:51:06.739Z,95371.03
2022-12-11T04:53:33.691Z,95379.41
2022-12-11T04:56:00.042Z,95374.16
2022-12-11T04:58:27.479Z,95375.03
2022-12-11T05:00:53.875Z,95370.78
2022-12-11T05:03:20.469Z,95371.16
2022-12-11T05:05:52.429Z,95367.31
2022-12-11T05:08:20.138Z,95368.91
2022-12-11T05:10:58.905Z,95366.53
2022-12-11T05:13:26.769Z,95371.78
2022-12-11T05:15:53.397Z,95354.94
2022-12-11T05:18:20.376Z,95351.88
2022-12-11T05:20:58.351Z,95353.38
2022-12-11T05:23:25.666Z,95348.63
2022-12-11T05:25:53.954Z,95351.22
2022-12-11T05:28:20.908Z,95350.72
2022-12-11T05:30:47.716Z,95343.06
2022-12-11T05:33:14.206Z,95344.97
2022-12-11T05:35:47.033Z,95350.16
2022-12-11T05:38:13.855Z,95331.78
2022-12-11T05:40:40.255Z,95341.22
2022-12-11T05:43:06.567Z,95343.97
2022-12-11T05:45:33.400Z,95343.31
2022-12-11T05:47:59.773Z,95330.38
2022-12-11T05:50:26.138Z,95345.09
2022-12-11T05:52:52.924Z,95335.16
2022-12-11T05:55:19.247Z,95338.56
2022-12-11T05:57:45.574Z,95343.91
2022-12-11T06:00:13.023Z,95342.94
2022-12-11T06:02:39.416Z,95351.69
2022-12-11T06:05:06.186Z,95348.00
2022-12-11T06:07:32.891Z,95356.56
2022-12-11T06:09:59.220Z,95352.19
2022-12-11T06:12:25.557Z,95360.38
2022-12-11T06:14:51.880Z,95365.66
2022-12-11T06:17:18.555Z,95355.97
2022-12-11T06:19:44.875Z,95364.25
2022-12-11T06:22:11.186Z,95367.94
2022-12-11T06:24:38.026Z,95365.22
2022-12-11T06:27:04.435Z,95365.47
2022-12-11T06:29:30.772Z,95355.53
2022-12-11T06:31:57.533Z,95354.84
2022-12-11T06:34:23.939Z,95361.69
2022-12-11T06:36:50.251Z,95359.22
2022-12-11T06:39:16.878Z,95355.44
2022-12-11T06:41:43.194Z,95344.56
2022-12-11T06:44:10.293Z,95346.19
2022-12-11T06:46:36.627Z,95333.81
2022-12-11T06:49:03.093Z,95334.09
2022-12-11T06:51:29.836Z,95334.38
2022-12-11T06:53:57.083Z,95333.69
2022-12-11T06:56:24.945Z,95328.38
2022-12-11T06:58:52.411Z,95336.69
2022-12-11T07:01:22.162Z,95333.56
2022-12-11T07:03:49.120Z,95337.25
2022-12-11T07:06:16.834Z,95343.50
2022-12-11T07:08:43.542Z,95338.66
2022-12-11T07:11:12.470Z,95338.09
2022-12-11T07:13:39.267Z,95322.81
2022-12-11T07:16:10.583Z,95318.97
2022-12-11T07:18:42.583Z,95324.44
2022-12-11T07:21:12.019Z,95329.66
2022-12-11T07:23:38.515Z,95330.47
2022-12-11T07:26:11.711Z,95331.56
2022-12-11T07:28:38.658Z,95329.41
2022-12-11T07:31:06.831Z,95339.59
2022-12-11T07:33:34.393Z,95329.81
2022-12-11T07:36:05.781Z,95340.16
2022-12-11T07:38:32.407Z,95335.75
2022-12-11T07:41:04.115Z,95335.63
2022-12-11T07:43:30.498Z,95345.84
2022-12-11T07:46:01.890Z,95345.41
2022-12-11T07:48:28.333Z,95350.19
2022-12-11T07:50:55.146Z,95360.38
2022-12-11T07:53:21.453Z,95368.34
2022-12-11T07:55:47.818Z,95365.72
2022-12-11T07:58:14.748Z,95371.56
2022-12-11T08:00:41.118Z,95378.22
2022-12-11T08:03:07.506Z,95378.25
2022-12-11T08:05:34.129Z,95369.66
2022-12-11T08:08:00.509Z,95383.53
2022-12-11T08:10:26.881Z,95382.09
2022-12-11T08:12:53.602Z,95382.56
2022-12-11T08:15:19.909Z,95381.16
2022-12-11T08:17:46.205Z,95384.75
2022-12-11T08:20:12.768Z,95380.06
2022-12-11T08:22:39.164Z,95371.22
2022-12-11T08:25:06.217Z,95378.41
2022-12-11T08:27:32.886Z,95371.19
2022-12-11T08:29:59.458Z,95368.97
2022-12-11T08:32:25.773Z,95363.06
2022-12-11T08:34:52.582Z,95371.72
2022-12-11T08:37:19.242Z,95377.19
2022-12-11T08:39:46.880Z,95377.09
2022-12-11T08:42:13.197Z,95371.00
2022-12-11T08:44:39.882Z,95371.59
2022-12-11T08:47:06.282Z,95366.09
2022-12-11T08:49:34.745Z,95365.03
2022-12-11T08:52:02.802Z,95364.94
2022-12-11T08:54:29.139Z,95357.22
2022-12-11T08:56:58.104Z,95356.47
2022-12-11T08:59:25.711Z,95353.84
2022-12-11T09:01:52.275Z,95360.78
2022-12-11T09:04:19.675Z,95348.78
2022-12-11T09:06:46.026Z,95347.34
2022-12-11T09:09:12.716Z,95349.28
2022-12-11T09:11:39.638Z,95348.38
2022-12-11T09:14:07.878Z,95340.53
2022-12-11T09:16:37.835Z,95349.16
2022-12-11T09:19:04.805Z,95343.19
2022-12-11T09:21:31.203Z,95340.50
2022-12-11T09:24:00.496Z,95342.31
2022-12-11T09:26:28.532Z,95344.81
2022-12-11T09:28:55.049Z,95341.78
2022-12-11T09:31:33.726Z,95348.81
2022-12-11T09:34:06.354Z,95332.81
2022-12-11T09:36:34.167Z,95338.34
2022-12-11T09:39:04.588Z,95350.34
2022-12-11T09:41:37.513Z,95340.56
2022-12-11T09:44:22.193Z,95344.50
2022-12-11T09:46:49.991Z,95342.09
2022-12-11T09:49:36.890Z,95343.09
2022-12-11T09:52:10.632Z,95350.00
2022-12-11T09:54:42.227Z,95351.94
2022-12-11T09:57:29.113Z,95350.28
2022-12-11T10:00:13.835Z,95343.03
2022-12-11T10:02:43.646Z,95339.84
2022-12-11T10:05:42.612Z,95337.34
2022-12-11T10:08:24.208Z,95334.59
2022-12-11T10:10:56.909Z,95333.22
2022-12-11T10:13:33.145Z,95327.84
2022-12-11T10:16:38.350Z,95328.91
2022-12-11T10:19:05.470Z,95324.06
2022-12-11T10:21:40.018Z,95321.03
2022-12-11T10:24:40.787Z,95316.28
2022-12-11T10:27:23.831Z,95323.81
2022-12-11T10:30:15.918Z,95318.81
2022-12-11T10:32:46.115Z,95317.41
2022-12-11T10:35:31.761Z,95310.09
2022-12-11T10:38:12.857Z,95309.06
2022-12-11T10:40:45.616Z,95312.59
2022-12-11T10:43:12.485Z,95313.84
2022-12-11T10:45:39.271Z,95311.34
2022-12-11T10:48:14.687Z,95307.09
2022-12-11T10:50:46.220Z,95304.03
2022-12-11T10:53:22.275Z,95295.63
2022-12-11T10:55:49.822Z,95292.56
2022-12-11T10:58:19.980Z,95289.34
2022-12-11T11:00:49.313Z,95282.66
2022-12-11T11:03:25.846Z,95278.31
2022-12-11T11:06:04.130Z,95275.88
2022-12-11T11:08:40.239Z,95269.22
2022-12-11T11:11:08.886Z,95267.94
2022-12-11T11:13:35.531Z,95271.50
2022-12-11T11:16:10.010Z,95272.63
2022-12-11T11:18:37.256Z,95262.88
2022-12-11T11:21:03.834Z,95263.31
2022-12-11T11:23:30.260Z,95261.88
2022-12-11T11:26:00.406Z,95250.56
2022-12-11T11:28:34.911Z,95246.06
2022-12-11T11:31:16.572Z,95249.34
2022-12-11T11:33:56.733Z,95239.19
2022-12-11T11:36:28.757Z,95251.91
2022-12-11T11:39:19.534Z,95238.53
2022-12-11T11:42:07.843Z,95240.13
2022-12-11T11:44:40.340Z,95240.69
2022-12-11T11:47:17.333Z,95240.97
2022-12-11T11:50:03.694Z,95230.97
2022-12-11T11:52:46.450Z,95237.50
2022-12-11T11:55:32.966Z,95244.09
2022-12-11T11:58:22.854Z,95238.38
2022-12-11T12:00:53.429Z,95231.50
2022-12-11T12:03:22.836Z,95226.44
2022-12-11T12:06:15.308Z,95225.25
2022-12-11T12:09:05.814Z,95229.28
2022-12-11T12:11:43.115Z,95229.78
2022-12-11T12:20:58.380Z,95224.63
2022-12-11T12:23:36.648Z,95221.38
2022-12-11T12:26:22.366Z,95218.94
2022-12-11T12:29:02.968Z,95213.06
2022-12-11T12:31:40.889Z,95215.34
2022-12-11T12:34:17.561Z,95211.41
2022-12-11T12:37:11.795Z,95213.19
2022-12-11T12:39:38.062Z,95215.59
2022-12-11T12:42:08.132Z,95220.66
2022-12-11T12:44:49.542Z,95212.53
2022-12-11T12:47:18.555Z,95212.22
2022-12-11T12:49:47.130Z,95210.94
2022-12-11T12:52:19.330Z,95220.34
2022-12-11T12:55:08.584Z,95209.63
2022-12-11T12:57:38.147Z,95207.66
2022-12-11T13:00:12.597Z,95211.56
2022-12-11T13:02:51.194Z,95207.44
2022-12-11T13:05:27.314Z,95200.84
2022-12-11T13:07:59.515Z,95206.78
2022-12-11T13:10:34.675Z,95209.91
2022-12-11T13:13:03.614Z,95205.56
2022-12-11T13:15:34.735Z,95213.50
2022-12-11T13:18:05.318Z,95211.25
2022-12-11T13:20:33.399Z,95206.00
2022-12-11T13:23:06.216Z,95206.97
2022-12-11T13:25:46.574Z,95197.16
2022-12-11T13:28:47.845Z,95192.13
2022-12-11T13:31:14.204Z,95199.06
2022-12-11T13:33:50.287Z,95207.50
2022-12-11T13:36:24.413Z,95207.94
2022-12-11T13:39:02.454Z,95214.53
2022-12-11T13:41:32.240Z,95216.97
2022-12-11T13:43:59.706Z,95207.50
2022-12-11T13:46:30.289Z,95211.88
2022-12-11T13:49:00.784Z,95206.75
2022-12-11T13:51:30.119Z,95207.19
2022-12-11T13:54:17.700Z,95209.03
2022-12-11T13:57:07.586Z,95211.94
2022-12-11T13:59:37.366Z,95211.75
2022-12-11T14:02:13.217Z,95217.66
2022-12-11T14:04:40.910Z,95228.09
2022-12-11T14:07:11.529Z,95214.78
2022-12-11T14:09:43.638Z,95217.91
2022-12-11T14:12:20.175Z,95216.31
2022-12-11T14:14:51.813Z,95214.84
2022-12-11T14:17:28.160Z,95211.94
2022-12-11T14:19:57.633Z,95211.63
2022-12-11T14:22:27.590Z,95215.03
2022-12-11T14:25:00.040Z,95219.38
2022-12-11T14:27:28.014Z,95218.75
2022-12-11T14:29:55.094Z,95231.19
2022-12-11T14:32:43.538Z,95236.09
2022-12-11T14:35:22.859Z,95235.63
2022-12-11T14:37:50.003Z,95230.25
2022-12-11T14:40:20.065Z,95234.50
2022-12-11T14:42:55.663Z,95232.53
2022-12-11T14:45:33.075Z,95236.13
2022-12-11T14:48:02.478Z,95241.94
2022-12-11T14:50:43.756Z,95241.28
2022-12-11T14:53:15.637Z,95241.75
2022-12-11T14:55:42.290Z,95247.56
2022-12-11T14:58:23.575Z,95241.00
2022-12-11T15:00:59.091Z,95236.72
2022-12-11T15:03:34.535Z,95235.91
2022-12-11T15:06:01.982Z,95241.88
2022-12-11T15:08:34.485Z,95245.13
2022-12-11T15:11:02.837Z,95246.00
2022-12-11T15:13:29.535Z,95248.66
2022-12-11T15:15:56.520Z,95248.22
2022-12-11T15:18:29.006Z,95262.78
2022-12-11T15:21:01.585Z,95260.31
2022-12-11T15:23:29.079Z,95254.84
2022-12-11T15:26:00.910Z,95254.59
2022-12-11T15:28:31.822Z,95251.06
2022-12-11T15:31:01.134Z,95254.16
2022-12-11T15:33:32.648Z,95244.56
2022-12-11T15:36:04.886Z,95251.59
2022-12-11T15:38:40.695Z,95240.84
2022-12-11T15:41:14.611Z,95259.28
2022-12-11T15:43:41.432Z,95255.31
2022-12-11T15:46:07.819Z,95272.09
2022-12-11T15:48:34.800Z,95272.09
2022-12-11T15:51:01.153Z,95280.88
2022-12-11T15:53:27.547Z,95276.84
2022-12-11T15:55:54.566Z,95275.38
2022-12-11T15:58:24.062Z,95283.44
2022-12-11T16:00:50.754Z,95280.19
2022-12-11T16:03:19.500Z,95284.03
2022-12-11T16:05:46.655Z,95284.88
2022-12-11T16:08:15.189Z,95286.53
2022-12-11T16:10:43.669Z,95287.44
2022-12-11T16:13:14.196Z,95291.81
2022-12-11T16:15:42.992Z,95285.13
2022-12-11T16:18:12.594Z,95294.56
2022-12-11T16:20:40.912Z,95290.81
2022-12-11T16:23:07.997Z,95281.81
2022-12-11T16:25:37.186Z,95285.06
2022-12-11T16:28:03.698Z,95287.16
2022-12-11T16:30:30.112Z,95285.09
2022-12-11T16:32:57.079Z,95291.19
2022-12-11T16:35:23.445Z,95289.16
2022-12-11T16:37:53.972Z,95284.59
2022-12-11T16:40:21.158Z,95287.34
2022-12-11T16:42:49.717Z,95282.47
2022-12-11T16:45:19.978Z,95285.84
2022-12-11T16:47:46.804Z,95287.88
2022-12-11T16:50:15.342Z,95272.38
2022-12-11T16:52:42.587Z,95281.19
2022-12-11T16:55:11.847Z,95286.53
2022-12-11T16:57:39.030Z,95283.56
2022-12-11T17:00:07.579Z,95294.03
2022-12-11T17:02:34.354Z,95287.41
2022-12-11T17:05:00.781Z,95298.09
2022-12-11T17:07:27.736Z,95300.44
2022-12-11T17:09:54.071Z,95290.25
2022-12-11T17:12:25.748Z,95288.66
2022-12-11T17:14:52.581Z,95286.34
2022-12-11T17:17:18.896Z,95283.53
2022-12-11T17:19:45.216Z,95293.47
2022-12-11T17:22:12.079Z,95291.94
2022-12-11T17:24:38.406Z,95292.97
2022-12-11T17:27:04.718Z,95291.19
2022-12-11T17:29:32.080Z,95288.59
2022-12-11T17:31:58.658Z,95293.53
2022-12-11T17:34:25.051Z,95291.09
2022-12-11T17:36:52.257Z,95294.38
2022-12-11T17:39:18.606Z,95290.44
2022-12-11T17:41:44.913Z,95286.38
2022-12-11T17:44:11.630Z,95288.84
2022-12-11T17:46:38.066Z,95290.38
2022-12-11T17:49:05.276Z,95292.00
2022-12-11T17:51:31.695Z,95291.00
2022-12-11T17:53:58.434Z,95292.63
2022-12-11T17:56:24.916Z,95291.00
2022-12-11T17:58:51.480Z,95288.69
2022-12-11T18:01:18.526Z,95293.19
2022-12-11T18:03:45.411Z,95295.47
2022-12-11T18:06:14.695Z,95297.66
2022-12-11T18:08:41.575Z,95289.47
2022-12-11T18:11:14.347Z,95290.16
2022-12-11T18:13:41.993Z,95286.63
2022-12-11T18:16:12.200Z,95289.91
2022-12-11T18:18:39.319Z,95293.31
2022-12-11T18:21:06.247Z,95292.06
2022-12-11T18:23:32.984Z,95291.63
2022-12-11T18:25:59.932Z,95283.56
2022-12-11T18:28:26.280Z,95291.13
2022-12-11T18:30:52.707Z,95293.81
2022-12-11T18:33:19.539Z,95290.84
2022-12-11T18:35:45.888Z,95300.34
2022-12-11T18:38:12.880Z,95295.84
2022-12-11T18:40:39.236Z,95300.19
2022-12-11T18:43:05.565Z,95288.59
2022-12-11T18:45:32.588Z,95290.25
2022-12-11T18:47:59.047Z,95288.06
2022-12-11T18:50:25.843Z,95290.19
2022-12-11T18:52:54.177Z,95290.72
2022-12-11T18:55:20.823Z,95297.25
2022-12-11T18:57:47.266Z,95292.34
2022-12-11T19:00:14.767Z,95300.22
2022-12-11T19:02:41.080Z,95295.88
2022-12-11T19:05:07.761Z,95305.78
2022-12-11T19:07:34.554Z,95303.75
2022-12-11T19:10:01.000Z,95302.66
2022-12-11T19:12:27.349Z,95302.38
2022-12-11T19:14:54.962Z,95304.28
2022-12-11T19:17:21.286Z,95312.69
2022-12-11T19:19:47.704Z,95308.34
2022-12-11T19:22:15.174Z,95299.41
2022-12-11T19:24:42.000Z,95306.47
2022-12-11T19:27:13.253Z,95300.97
2022-12-11T19:29:40.189Z,95297.84
2022-12-11T19:32:07.055Z,95302.53
2022-12-11T19:34:33.498Z,95302.66
2022-12-11T19:37:00.106Z,95301.34
2022-12-11T19:39:26.934Z,95309.66
2022-12-11T19:41:53.239Z,95307.81
2022-12-11T19:44:19.581Z,95304.84
2022-12-11T19:46:46.445Z,95307.53
2022-12-11T19:49:13.141Z,95310.50
2022-12-11T19:51:41.642Z,95310.59
2022-12-11T19:54:11.199Z,95302.81
2022-12-11T19:56:38.394Z,95311.34
2022-12-11T19:59:07.007Z,95309.19
2022-12-11T20:01:35.836Z,95295.25
2022-12-11T20:04:13.921Z,95297.97
2022-12-11T20:06:43.420Z,95298.50
2022-12-11T20:09:11.786Z,95298.75
2022-12-11T20:11:44.037Z,95297.06
2022-12-11T20:14:18.668Z,95306.66
2022-12-11T20:17:10.098Z,95307.34
2022-12-11T20:19:32.783Z,95306.81
2022-12-11T20:21:59.355Z,95315.50
2022-12-11T20:24:26.099Z,95302.00
2022-12-11T20:26:54.665Z,95310.81
2022-12-11T20:29:21.005Z,95306.88
2022-12-11T20:31:50.054Z,95304.38
2022-12-11T20:34:16.663Z,95308.53
2022-12-11T20:36:43.005Z,95303.97
2022-12-11T20:39:09.950Z,95306.44
2022-12-11T20:41:36.905Z,95306.31
2022-12-11T20:44:03.285Z,95307.13
2022-12-11T20:46:29.586Z,95315.94
2022-12-11T20:48:58.805Z,95311.66
2022-12-11T20:51:26.694Z,95312.03
2022-12-11T20:54:01.433Z,95312.97
2022-12-11T20:56:29.768Z,95314.34
2022-12-11T20:58:57.211Z,95316.88
2022-12-11T21:01:26.473Z,95322.16
2022-12-11T21:03:53.450Z,95320.28
2022-12-11T21:06:22.466Z,95324.84
2022-12-11T21:08:49.482Z,95318.81
2022-12-11T21:11:16.266Z,95316.63
2022-12-11T21:13:42.725Z,95315.56
2022-12-11T21:16:10.687Z,95322.09
2022-12-11T21:18:37.711Z,95310.41
2022-12-11T21:21:04.322Z,95323.66
2022-12-11T21:23:31.170Z,95315.78
2022-12-11T21:25:57.527Z,95320.13
2022-12-11T21:28:23.860Z,95324.91
2022-12-11T21:30:50.875Z,95324.22
2022-12-11T21:33:17.472Z,95326.78
2022-12-11T21:35:43.945Z,95324.84
2022-12-11T21:38:10.708Z,95313.31
2022-12-11T21:40:37.033Z,95312.16
2022-12-11T21:43:03.795Z,95315.59
2022-12-11T21:48:17.015Z,95321.59
2022-12-11T21:50:43.341Z,95326.50
2022-12-11T21:53:09.780Z,95326.38
2022-12-11T21:55:40.630Z,95328.19
2022-12-11T21:58:07.008Z,95320.84
2022-12-11T22:00:36.157Z,95326.19
2022-12-11T22:03:02.773Z,95334.41
2022-12-11T22:05:29.134Z,95331.16
2022-12-11T22:07:55.500Z,95327.81
2022-12-11T22:10:22.083Z,95332.28
2022-12-11T22:12:48.425Z,95331.03
2022-12-11T22:15:14.999Z,95333.28
2022-12-11T22:17:41.901Z,95332.31
2022-12-11T22:20:08.970Z,95337.69
2022-12-11T22:22:35.290Z,95334.66
2022-12-11T22:25:03.930Z,95332.44
2022-12-11T22:27:30.302Z,95330.44
2022-12-11T22:29:56.597Z,95330.88
2022-12-11T22:32:23.819Z,95330.34
2022-12-11T22:34:50.136Z,95328.03
2022-12-11T22:37:16.485Z,95331.53
2022-12-11T22:39:43.222Z,95335.38
2022-12-11T22:42:09.563Z,95336.28
2022-12-11T22:44:35.881Z,95346.13
2022-12-11T22:47:02.635Z,95340.88
2022-12-11T22:49:29.019Z,95339.03
2022-12-11T22:51:57.198Z,95338.22
2022-12-11T22:54:25.093Z,95336.97
2022-12-11T22:56:51.441Z,95334.28
2022-12-11T22:59:17.843Z,95326.75
2022-12-11T23:01:44.729Z,95329.16
2022-12-11T23:04:11.061Z,95330.22
2022-12-11T23:06:37.566Z,95319.84
2022-12-11T23:09:04.961Z,95331.53
2022-12-11T23:11:36.888Z,95332.78
2022-12-11T23:14:05.061Z,95330.91
2022-12-11T23:16:31.703Z,95326.94
2022-12-11T23:18:58.470Z,95329.00
2022-12-11T23:21:26.982Z,95324.22
2022-12-11T23:23:54.211Z,95322.97
2022-12-11T23:26:22.576Z,95331.03
2022-12-11T23:28:50.063Z,95331.78
2022-12-11T23:31:17.194Z,95333.41
2022-12-11T23:33:43.699Z,95334.56
2022-12-11T23:36:11.333Z,95326.81
2022-12-11T23:38:38.312Z,95332.50
2022-12-11T23:41:06.043Z,95334.56
2022-12-11T23:43:35.021Z,95337.13
2022-12-11T23:46:02.988Z,95340.03
2022-12-11T23:48:29.394Z,95337.97
2022-12-11T23:51:00.540Z,95348.00
2022-12-11T23:53:28.729Z,95340.09
2022-12-11T23:55:55.812Z,95342.66
2022-12-11T23:58:22.348Z,95341.16
